createdAt,value
2022-08-17T00:01:52.853Z,84.46
2022-08-17T00:04:23.673Z,85.05
2022-08-17T00:06:53.480Z,85.51
2022-08-17T00:09:26.197Z,85.84
2022-08-17T00:12:42.807Z,86.03
2022-08-17T00:14:44.238Z,85.88
2022-08-17T00:17:13.261Z,86.11
2022-08-17T00:19:43.304Z,86.56
2022-08-17T00:22:35.027Z,86.52
2022-08-17T00:25:02.904Z,86.68
2022-08-17T00:27:31.814Z,86.55
2022-08-17T00:30:00.717Z,86.65
2022-08-17T00:33:14.906Z,86.69
2022-08-17T00:35:23.293Z,86.98
2022-08-17T00:37:53.304Z,86.93
2022-08-17T00:40:24.717Z,86.78
2022-08-17T00:42:54.326Z,86.81
2022-08-17T00:45:23.328Z,86.94
2022-08-17T00:47:52.164Z,87.48
2022-08-17T00:50:21.308Z,87.91
2022-08-17T00:52:58.482Z,87.99
2022-08-17T00:55:29.420Z,88.09
2022-08-17T00:58:01.331Z,88.10
2022-08-17T01:00:34.509Z,87.88
2022-08-17T01:03:07.739Z,87.89
2022-08-17T01:05:42.407Z,88.19
2022-08-17T01:08:15.267Z,88.35
2022-08-17T01:11:00.582Z,90.17
2022-08-17T01:13:40.636Z,89.50
2022-08-17T01:16:17.125Z,89.07
2022-08-17T01:18:49.138Z,88.95
2022-08-17T01:21:24.797Z,88.81
2022-08-17T01:23:55.059Z,88.84
2022-08-17T01:26:24.448Z,88.81
2022-08-17T01:28:55.778Z,88.32
2022-08-17T01:31:29.330Z,88.02
2022-08-17T01:34:01.900Z,88.35
2022-08-17T01:36:31.210Z,88.56
2022-08-17T01:39:02.102Z,88.34
2022-08-17T01:41:31.298Z,88.11
2022-08-17T01:44:05.527Z,87.90
2022-08-17T01:46:37.484Z,87.96
2022-08-17T01:49:09.455Z,87.80
2022-08-17T01:51:39.594Z,87.46
2022-08-17T01:54:14.683Z,88.15
2022-08-17T01:56:47.094Z,87.62
2022-08-17T01:59:17.000Z,88.07
2022-08-17T02:01:46.208Z,85.06
2022-08-17T02:04:18.414Z,84.81
2022-08-17T02:06:54.362Z,84.77
2022-08-17T02:09:29.974Z,85.63
2022-08-17T02:12:37.133Z,86.09
2022-08-17T02:14:53.108Z,86.40
2022-08-17T02:17:22.363Z,86.17
2022-08-17T02:19:51.511Z,86.92
2022-08-17T02:22:21.229Z,86.66
2022-08-17T02:25:00.026Z,84.07
2022-08-17T02:27:30.837Z,84.77
2022-08-17T02:29:59.769Z,85.37
2022-08-17T02:32:28.867Z,84.37
2022-08-17T02:34:58.797Z,83.78
2022-08-17T02:37:28.697Z,83.67
2022-08-17T02:39:59.992Z,83.79
2022-08-17T02:42:34.734Z,84.61
2022-08-17T02:45:04.106Z,85.95
2022-08-17T02:47:33.313Z,82.97
2022-08-17T02:50:02.418Z,82.61
2022-08-17T02:52:42.959Z,83.28
2022-08-17T02:55:16.839Z,83.74
2022-08-17T02:57:46.550Z,84.27
2022-08-17T03:00:19.563Z,84.56
2022-08-17T03:02:48.965Z,83.57
2022-08-17T03:05:21.563Z,84.81
2022-08-17T03:07:50.467Z,84.64
2022-08-17T03:10:21.899Z,85.94
2022-08-17T03:12:51.024Z,87.44
2022-08-17T03:15:23.779Z,90.82
2022-08-17T03:17:53.044Z,91.82
2022-08-17T03:20:22.863Z,93.81
2022-08-17T03:22:54.125Z,94.52
2022-08-17T03:25:35.632Z,96.33
2022-08-17T03:28:05.432Z,97.71
2022-08-17T03:30:37.597Z,96.88
2022-08-17T03:33:09.977Z,97.55
2022-08-17T03:35:42.541Z,97.07
2022-08-17T03:38:15.871Z,97.72
2022-08-17T03:40:57.193Z,98.34
2022-08-17T03:43:29.831Z,99.31
2022-08-17T03:46:27.332Z,99.39
2022-08-17T03:49:15.589Z,99.42
2022-08-17T03:52:01.628Z,99.38
2022-08-17T03:54:48.307Z,100.00
2022-08-17T03:57:19.298Z,100.00
2022-08-17T03:59:48.666Z,100.00
2022-08-17T04:02:20.817Z,100.00
2022-08-17T04:04:51.330Z,100.00
2022-08-17T04:07:20.976Z,100.00
2022-08-17T04:09:50.091Z,100.00
2022-08-17T04:12:25.415Z,100.00
2022-08-17T04:14:55.266Z,100.00
2022-08-17T04:17:26.660Z,100.00
2022-08-17T04:19:58.075Z,100.00
2022-08-17T04:22:30.689Z,100.00
2022-08-17T04:25:08.771Z,99.67
2022-08-17T04:27:38.856Z,99.83
2022-08-17T04:30:08.780Z,99.43
2022-08-17T04:33:10.879Z,98.76
2022-08-17T04:35:41.851Z,98.27
2022-08-17T04:38:13.087Z,98.14
2022-08-17T04:40:59.617Z,99.13
2022-08-17T04:43:32.045Z,99.25
2022-08-17T04:46:05.749Z,100.00
2022-08-17T04:48:38.578Z,100.00
2022-08-17T04:51:10.379Z,100.00
2022-08-17T04:53:42.203Z,100.00
2022-08-17T04:56:16.900Z,100.00
2022-08-17T04:58:51.762Z,100.00
2022-08-17T05:01:23.290Z,100.00
2022-08-17T05:03:54.224Z,100.00
2022-08-17T05:06:23.684Z,100.00
2022-08-17T05:08:52.970Z,100.00
2022-08-17T05:11:22.204Z,100.00
2022-08-17T05:13:52.273Z,100.00
2022-08-17T05:16:22.369Z,100.00
2022-08-17T05:18:51.371Z,100.00
2022-08-17T05:21:24.588Z,100.00
2022-08-17T05:23:56.298Z,100.00
2022-08-17T05:26:27.574Z,100.00
2022-08-17T05:29:02.745Z,100.00
2022-08-17T05:31:32.413Z,100.00
2022-08-17T05:34:01.162Z,100.00
2022-08-17T05:36:41.934Z,100.00
2022-08-17T05:39:15.902Z,100.00
2022-08-17T05:41:48.854Z,100.00
2022-08-17T05:44:19.253Z,100.00
2022-08-17T05:46:51.885Z,100.00
2022-08-17T05:49:27.171Z,100.00
2022-08-17T05:52:10.848Z,100.00
2022-08-17T05:54:51.664Z,100.00
2022-08-17T05:57:42.410Z,100.00
2022-08-17T06:00:20.839Z,100.00
2022-08-17T06:03:04.957Z,100.00
2022-08-17T06:05:51.989Z,100.00
2022-08-17T06:08:31.663Z,100.00
2022-08-17T06:11:15.514Z,100.00
2022-08-17T06:14:09.144Z,100.00
2022-08-17T06:16:42.762Z,100.00
2022-08-17T06:19:16.909Z,100.00
2022-08-17T06:21:50.185Z,100.00
2022-08-17T06:24:36.136Z,100.00
2022-08-17T06:27:13.356Z,100.00
2022-08-17T06:29:50.105Z,100.00
2022-08-17T06:32:20.646Z,100.00
2022-08-17T06:34:49.840Z,100.00
2022-08-17T06:37:32.434Z,100.00
2022-08-17T06:40:11.509Z,100.00
2022-08-17T06:42:54.813Z,100.00
2022-08-17T06:45:39.018Z,100.00
2022-08-17T06:48:24.926Z,100.00
2022-08-17T06:51:00.204Z,100.00
2022-08-17T06:53:37.376Z,100.00
2022-08-17T06:56:09.939Z,100.00
2022-08-17T06:58:40.432Z,100.00
2022-08-17T07:01:12.446Z,100.00
2022-08-17T07:03:53.330Z,100.00
2022-08-17T07:06:25.486Z,100.00
2022-08-17T07:09:01.142Z,100.00
2022-08-17T07:11:35.847Z,100.00
2022-08-17T07:14:20.187Z,100.00
2022-08-17T07:16:52.261Z,100.00
2022-08-17T07:19:25.477Z,100.00
2022-08-17T07:22:08.998Z,100.00
2022-08-17T07:24:47.664Z,100.00
2022-08-17T07:27:21.352Z,100.00
2022-08-17T07:29:54.943Z,100.00
2022-08-17T07:32:27.306Z,100.00
2022-08-17T07:35:22.231Z,100.00
2022-08-17T07:38:24.395Z,100.00
2022-08-17T07:41:05.213Z,100.00
2022-08-17T07:43:36.687Z,100.00
2022-08-17T07:46:34.023Z,100.00
2022-08-17T07:49:25.984Z,100.00
2022-08-17T07:52:47.710Z,100.00
2022-08-17T07:54:50.176Z,100.00
2022-08-17T07:57:33.785Z,100.00
2022-08-17T08:00:26.636Z,100.00
2022-08-17T08:03:09.042Z,100.00
2022-08-17T08:05:51.008Z,100.00
2022-08-17T08:08:34.090Z,100.00
2022-08-17T08:11:10.472Z,99.61
2022-08-17T08:13:43.905Z,98.15
2022-08-17T08:16:24.812Z,96.60
2022-08-17T08:18:58.516Z,97.51
2022-08-17T08:21:36.637Z,97.60
2022-08-17T08:24:31.019Z,98.05
2022-08-17T08:27:09.206Z,97.89
2022-08-17T08:29:49.690Z,98.25
2022-08-17T08:32:23.849Z,97.61
2022-08-17T08:35:04.044Z,97.64
2022-08-17T08:37:43.598Z,96.99
2022-08-17T08:40:33.306Z,97.23
2022-08-17T08:43:16.898Z,97.15
2022-08-17T08:45:56.712Z,98.84
2022-08-17T08:49:10.286Z,97.32
2022-08-17T08:51:53.147Z,95.92
2022-08-17T08:54:35.153Z,96.97
2022-08-17T08:57:25.427Z,96.63
2022-08-17T09:00:12.836Z,95.74
2022-08-17T09:03:14.316Z,95.74
2022-08-17T09:06:06.141Z,94.62
2022-08-17T09:09:06.604Z,94.09
2022-08-17T09:12:02.302Z,93.88
2022-08-17T09:14:45.245Z,94.26
2022-08-17T09:17:20.749Z,94.84
2022-08-17T09:19:52.781Z,94.38
2022-08-17T09:22:33.583Z,94.44
2022-08-17T09:25:10.298Z,93.99
2022-08-17T09:27:51.433Z,94.04
2022-08-17T09:30:23.709Z,94.07
2022-08-17T09:32:57.479Z,93.91
2022-08-17T09:35:36.925Z,92.55
2022-08-17T09:38:18.519Z,92.01
2022-08-17T09:40:52.615Z,92.08
2022-08-17T09:43:31.686Z,91.87
2022-08-17T09:46:05.708Z,91.83
2022-08-17T09:48:41.423Z,91.07
2022-08-17T09:51:16.960Z,90.22
2022-08-17T09:53:47.056Z,90.78
2022-08-17T09:56:48.356Z,91.21
2022-08-17T09:59:38.661Z,91.48
2022-08-17T10:02:29.089Z,92.20
2022-08-17T10:05:04.251Z,92.10
2022-08-17T10:07:41.822Z,92.43
2022-08-17T10:10:16.852Z,93.09
2022-08-17T10:12:55.756Z,93.30
2022-08-17T10:15:36.706Z,92.59
2022-08-17T10:18:30.527Z,92.67
2022-08-17T10:21:24.406Z,92.35
2022-08-17T10:24:16.887Z,92.68
2022-08-17T10:26:56.089Z,92.39
2022-08-17T10:29:49.213Z,91.79
2022-08-17T10:32:32.741Z,91.88
2022-08-17T10:35:19.272Z,91.11
2022-08-17T10:38:09.840Z,90.54
2022-08-17T10:40:47.402Z,89.97
2022-08-17T10:43:31.082Z,89.67
2022-08-17T10:46:30.831Z,89.63
2022-08-17T10:49:23.231Z,88.55
2022-08-17T10:51:59.013Z,88.27
2022-08-17T10:54:42.724Z,88.23
2022-08-17T10:57:37.423Z,87.30
2022-08-17T11:00:12.970Z,87.27
2022-08-17T11:02:49.718Z,87.09
2022-08-17T11:05:58.948Z,86.52
2022-08-17T11:08:45.803Z,85.67
2022-08-17T11:11:40.615Z,86.58
2022-08-17T11:14:25.066Z,87.52
2022-08-17T11:17:15.179Z,87.94
2022-08-17T11:20:11.152Z,87.96
2022-08-17T11:23:04.209Z,88.32
2022-08-17T11:25:39.809Z,87.52
2022-08-17T11:28:20.130Z,87.69
2022-08-17T11:30:52.545Z,86.97
2022-08-17T11:33:58.282Z,86.71
2022-08-17T11:36:50.275Z,86.66
2022-08-17T11:39:40.923Z,87.35
2022-08-17T11:42:28.891Z,88.38
2022-08-17T11:45:00.407Z,88.73
2022-08-17T11:48:23.803Z,89.62
2022-08-17T11:51:11.626Z,90.58
2022-08-17T11:54:31.147Z,90.51
2022-08-17T11:56:52.943Z,90.68
2022-08-17T12:00:06.158Z,90.19
2022-08-17T12:02:47.556Z,91.12
2022-08-17T12:05:39.175Z,92.25
2022-08-17T12:08:21.346Z,91.92
2022-08-17T12:11:01.556Z,92.58
2022-08-17T12:13:38.700Z,94.23
2022-08-17T12:16:17.615Z,93.77
2022-08-17T12:18:53.428Z,94.35
2022-08-17T12:21:45.098Z,95.31
2022-08-17T12:24:24.152Z,95.52
2022-08-17T12:26:56.481Z,96.50
2022-08-17T12:29:39.045Z,95.28
2022-08-17T12:32:17.837Z,96.61
2022-08-17T12:34:49.999Z,97.59
2022-08-17T12:37:24.648Z,97.96
2022-08-17T12:39:57.741Z,97.29
2022-08-17T12:42:31.279Z,98.54
2022-08-17T12:45:06.659Z,100.00
2022-08-17T12:47:38.831Z,100.00
2022-08-17T12:50:28.742Z,100.00
2022-08-17T12:53:02.317Z,99.50
2022-08-17T12:55:38.994Z,99.58
2022-08-17T12:58:14.364Z,99.58
2022-08-17T13:00:51.281Z,99.01
2022-08-17T13:03:24.732Z,99.68
2022-08-17T13:05:59.608Z,99.47
2022-08-17T13:08:31.759Z,100.00
2022-08-17T13:11:03.246Z,99.99
2022-08-17T13:13:34.972Z,100.00
2022-08-17T13:16:06.733Z,99.18
2022-08-17T13:18:44.368Z,99.69
2022-08-17T13:21:26.944Z,100.00
2022-08-17T13:23:59.065Z,99.22
2022-08-17T13:26:35.241Z,98.75
2022-08-17T13:29:07.655Z,98.83
2022-08-17T13:31:56.692Z,99.09
2022-08-17T13:35:07.769Z,99.03
2022-08-17T13:37:33.862Z,98.86
2022-08-17T13:40:29.427Z,98.75
2022-08-17T13:42:58.966Z,98.96
2022-08-17T13:45:53.026Z,97.81
2022-08-17T13:48:28.489Z,98.04
2022-08-17T13:51:27.310Z,97.22
2022-08-17T13:54:00.212Z,97.93
2022-08-17T13:56:45.399Z,98.19
2022-08-17T13:59:17.643Z,97.86
2022-08-17T14:02:09.662Z,97.61
2022-08-17T14:04:40.804Z,97.11
2022-08-17T14:07:30.204Z,96.09
2022-08-17T14:10:02.377Z,96.25
2022-08-17T14:12:34.322Z,96.33
2022-08-17T14:15:03.765Z,95.85
2022-08-17T14:17:38.105Z,95.46
2022-08-17T14:20:11.131Z,95.57
2022-08-17T14:22:45.904Z,95.05
2022-08-17T14:25:17.700Z,94.55
2022-08-17T14:27:53.245Z,94.74
2022-08-17T14:30:24.674Z,94.67
2022-08-17T14:32:58.099Z,95.35
2022-08-17T14:35:29.340Z,95.29
2022-08-17T14:37:59.829Z,95.42
2022-08-17T14:40:29.538Z,95.32
2022-08-17T14:43:02.192Z,95.35
2022-08-17T14:45:32.618Z,95.01
2022-08-17T14:48:05.853Z,95.04
2022-08-17T14:50:36.098Z,94.73
2022-08-17T14:53:08.173Z,93.91
2022-08-17T14:55:39.987Z,93.98
2022-08-17T14:58:10.036Z,93.67
2022-08-17T15:00:41.432Z,93.95
2022-08-17T15:03:11.644Z,93.29
2022-08-17T15:05:44.291Z,93.71
2022-08-17T15:08:14.799Z,93.97
2022-08-17T15:10:44.825Z,93.04
2022-08-17T15:13:20.694Z,92.49
2022-08-17T15:15:51.097Z,92.62
2022-08-17T15:18:20.035Z,92.60
2022-08-17T15:20:50.659Z,92.41
2022-08-17T15:23:23.499Z,92.53
2022-08-17T15:25:55.031Z,92.58
2022-08-17T15:28:23.890Z,92.47
2022-08-17T15:30:53.664Z,92.17
2022-08-17T15:33:29.156Z,91.94
2022-08-17T15:36:09.192Z,90.85
2022-08-17T15:38:40.358Z,91.09
2022-08-17T15:41:12.609Z,90.03
2022-08-17T15:43:41.306Z,91.88
2022-08-17T15:46:17.366Z,92.14
2022-08-17T15:48:48.308Z,91.63
2022-08-17T15:51:19.389Z,91.46
2022-08-17T15:53:52.134Z,91.82
2022-08-17T15:56:23.461Z,93.00
2022-08-17T15:58:56.298Z,93.21
2022-08-17T16:02:20.001Z,92.33
2022-08-17T16:04:30.184Z,93.04
2022-08-17T16:07:00.825Z,93.14
2022-08-17T16:09:33.010Z,92.18
2022-08-17T16:12:17.324Z,92.38
2022-08-17T16:14:53.403Z,95.56
2022-08-17T16:17:39.830Z,95.03
2022-08-17T16:20:19.528Z,93.74
2022-08-17T16:22:51.575Z,93.75
2022-08-17T16:25:51.975Z,93.63
2022-08-17T16:28:21.926Z,93.48
2022-08-17T16:30:50.686Z,92.89
2022-08-17T16:33:21.967Z,92.92
2022-08-17T16:35:50.735Z,93.05
2022-08-17T16:38:22.285Z,92.95
2022-08-17T16:40:54.655Z,92.97
2022-08-17T16:43:25.690Z,93.15
2022-08-17T16:45:54.499Z,92.96
2022-08-17T16:48:44.481Z,92.88
2022-08-17T16:51:13.256Z,92.45
2022-08-17T16:53:44.239Z,91.83
2022-08-17T16:56:18.892Z,90.31
2022-08-17T16:58:47.843Z,90.40
2022-08-17T17:01:22.033Z,91.97
2022-08-17T17:03:58.161Z,92.48
2022-08-17T17:06:37.037Z,92.81
2022-08-17T17:09:13.236Z,93.55
2022-08-17T17:11:47.240Z,91.40
2022-08-17T17:14:22.315Z,91.15
2022-08-17T17:16:59.503Z,91.03
2022-08-17T17:19:37.671Z,91.06
2022-08-17T17:22:15.421Z,90.91
2022-08-17T17:24:52.781Z,91.69
2022-08-17T17:27:35.327Z,92.16
2022-08-17T17:30:10.066Z,92.12
2022-08-17T17:32:42.194Z,92.43
2022-08-17T17:35:21.534Z,91.71
2022-08-17T17:37:51.691Z,92.30
2022-08-17T17:40:24.449Z,92.21
2022-08-17T17:43:09.293Z,92.45
2022-08-17T17:45:55.124Z,93.11
2022-08-17T17:48:24.362Z,94.53
2022-08-17T17:51:02.412Z,95.09
2022-08-17T17:53:50.338Z,94.79
2022-08-17T17:56:43.065Z,94.15
2022-08-17T17:59:26.786Z,94.51
2022-08-17T18:02:07.902Z,94.85
2022-08-17T18:04:46.132Z,94.92
2022-08-17T18:07:23.822Z,96.09
2022-08-17T18:10:05.529Z,96.20
2022-08-17T18:12:59.767Z,96.36
2022-08-17T18:15:37.985Z,96.64
2022-08-17T18:18:44.729Z,96.64
2022-08-17T18:21:22.554Z,97.27
2022-08-17T18:23:55.069Z,97.80
2022-08-17T18:26:55.326Z,97.90
2022-08-17T18:29:32.247Z,98.49
2022-08-17T18:32:22.732Z,97.82
2022-08-17T18:34:53.975Z,98.00
2022-08-17T18:37:36.795Z,98.01
2022-08-17T18:40:38.065Z,97.91
2022-08-17T18:43:11.421Z,99.39
2022-08-17T18:45:47.887Z,99.05
2022-08-17T18:48:50.080Z,100.00
2022-08-17T18:51:26.281Z,100.00
2022-08-17T18:54:17.290Z,99.96
2022-08-17T18:56:51.205Z,99.77
2022-08-17T18:59:34.513Z,100.00
2022-08-17T19:02:32.576Z,100.00
2022-08-17T19:05:28.881Z,100.00
2022-08-17T19:08:19.435Z,100.00
2022-08-17T19:10:52.980Z,100.00
2022-08-17T19:13:26.819Z,100.00
2022-08-17T19:16:15.137Z,100.00
2022-08-17T19:18:50.588Z,100.00
2022-08-17T19:21:26.350Z,99.57
2022-08-17T19:24:00.140Z,99.18
2022-08-17T19:26:53.853Z,99.41
2022-08-17T19:29:30.254Z,98.85
2022-08-17T19:32:01.667Z,98.79
2022-08-17T19:34:34.494Z,98.70
2022-08-17T19:37:12.681Z,98.69
2022-08-17T19:39:51.801Z,98.42
2022-08-17T19:42:33.134Z,98.21
2022-08-17T19:45:08.443Z,98.49
2022-08-17T19:47:55.419Z,98.67
2022-08-17T19:50:39.373Z,98.78
2022-08-17T19:53:20.768Z,98.75
2022-08-17T19:55:59.586Z,98.28
2022-08-17T19:58:42.790Z,98.25
2022-08-17T20:01:19.109Z,97.69
2022-08-17T20:03:57.774Z,97.91
2022-08-17T20:06:30.110Z,98.27
2022-08-17T20:09:04.803Z,98.60
2022-08-17T20:11:41.316Z,98.15
2022-08-17T20:14:15.483Z,97.12
2022-08-17T20:16:44.444Z,97.89
2022-08-17T20:19:22.825Z,98.09
2022-08-17T20:21:57.726Z,98.76
2022-08-17T20:24:34.916Z,97.90
2022-08-17T20:27:15.242Z,97.25
2022-08-17T20:30:09.427Z,96.63
2022-08-17T20:32:52.571Z,96.84
2022-08-17T20:35:26.146Z,96.89
2022-08-17T20:38:02.153Z,97.04
2022-08-17T20:40:38.525Z,97.85
2022-08-17T20:43:45.916Z,97.85
2022-08-17T20:46:24.792Z,97.51
2022-08-17T20:48:56.881Z,97.58
2022-08-17T20:51:30.489Z,96.18
2022-08-17T20:54:37.739Z,96.11
2022-08-17T20:57:14.415Z,97.02
2022-08-17T21:00:02.688Z,97.49
2022-08-17T21:02:37.136Z,97.67
2022-08-17T21:05:27.227Z,97.32
2022-08-17T21:08:02.528Z,97.40
2022-08-17T21:10:36.740Z,97.47
2022-08-17T21:13:34.874Z,97.04
2022-08-17T21:16:23.437Z,97.21
2022-08-17T21:19:01.172Z,97.48
2022-08-17T21:21:41.189Z,97.35
2022-08-17T21:24:22.347Z,97.07
2022-08-17T21:27:02.373Z,97.02
2022-08-17T21:29:33.973Z,96.37
2022-08-17T21:32:24.214Z,95.90
2022-08-17T21:35:26.735Z,96.25
2022-08-17T21:38:03.609Z,96.48
2022-08-17T21:40:34.746Z,96.95
2022-08-17T21:43:23.455Z,97.85
2022-08-17T21:46:01.303Z,97.68
2022-08-17T21:48:32.458Z,96.87
2022-08-17T21:51:08.285Z,96.92
2022-08-17T21:53:41.466Z,96.86
2022-08-17T21:56:13.426Z,96.11
2022-08-17T21:58:48.457Z,96.30
2022-08-17T22:01:25.041Z,96.46
2022-08-17T22:04:04.931Z,96.34
2022-08-17T22:06:41.679Z,96.62
2022-08-17T22:09:17.917Z,96.86
2022-08-17T22:12:04.486Z,96.25
2022-08-17T22:14:52.301Z,96.20
2022-08-17T22:17:26.801Z,96.27
2022-08-17T22:19:59.620Z,96.29
2022-08-17T22:22:32.453Z,96.75
2022-08-17T22:25:01.432Z,96.70
2022-08-17T22:27:52.730Z,96.26
2022-08-17T22:30:33.125Z,96.64
2022-08-17T22:33:29.845Z,96.55
2022-08-17T22:36:30.379Z,96.14
2022-08-17T22:39:01.230Z,96.25
2022-08-17T22:41:53.995Z,96.39
2022-08-17T22:44:30.155Z,96.56
2022-08-17T22:47:02.727Z,96.69
2022-08-17T22:49:53.296Z,96.85
2022-08-17T22:52:34.181Z,96.80
2022-08-17T22:55:25.016Z,97.06
2022-08-17T22:58:12.122Z,97.11
2022-08-17T23:00:43.745Z,96.86
2022-08-17T23:03:19.006Z,96.93
2022-08-17T23:06:11.386Z,97.26
2022-08-17T23:08:56.201Z,97.43
2022-08-17T23:11:42.845Z,97.26
2022-08-17T23:14:18.448Z,97.53
2022-08-17T23:16:48.703Z,97.17
2022-08-17T23:19:20.022Z,97.04
2022-08-17T23:21:51.053Z,97.55
2022-08-17T23:24:24.794Z,98.48
2022-08-17T23:26:54.400Z,98.47
2022-08-17T23:29:23.035Z,98.69
2022-08-17T23:31:52.515Z,98.04
2022-08-17T23:34:21.214Z,98.24
2022-08-17T23:36:53.249Z,98.16
2022-08-17T23:39:24.345Z,98.11
2022-08-17T23:41:54.030Z,97.13
2022-08-17T23:44:24.434Z,96.75
2022-08-17T23:46:54.077Z,96.55
2022-08-17T23:49:26.209Z,95.32
2022-08-17T23:52:00.139Z,94.96
2022-08-17T23:54:35.315Z,95.43
2022-08-17T23:57:05.955Z,95.31
2022-08-17T23:59:36.868Z,97.02
